createdAt,value
2019-02-08T00:00:27.241Z,6.72
2019-02-08T00:01:33.878Z,6.67
2019-02-08T00:02:40.023Z,7.10
2019-02-08T00:03:46.406Z,7.69
2019-02-08T00:04:53.271Z,8.31
2019-02-08T00:05:59.647Z,8.87
2019-02-08T00:07:06.184Z,9.38
2019-02-08T00:08:13.108Z,9.83
2019-02-08T00:09:20.260Z,10.21
2019-02-08T00:10:28.280Z,10.55
2019-02-08T00:11:35.878Z,10.70
2019-02-08T00:12:43.490Z,10.56
2019-02-08T00:13:50.493Z,10.19
2019-02-08T00:14:57.284Z,9.79
2019-02-08T00:16:04.323Z,9.37
2019-02-08T00:17:11.218Z,9.00
2019-02-08T00:18:17.727Z,8.66
2019-02-08T00:19:25.099Z,8.35
2019-02-08T00:20:32.066Z,8.06
2019-02-08T00:21:38.844Z,7.78
2019-02-08T00:22:45.948Z,7.52
2019-02-08T00:23:53.774Z,7.21
2019-02-08T00:25:04.180Z,7.04
2019-02-08T00:26:11.141Z,6.82
2019-02-08T00:27:18.280Z,6.61
2019-02-08T00:28:24.679Z,6.58
2019-02-08T00:29:31.923Z,7.04
2019-02-08T00:30:38.748Z,7.69
2019-02-08T00:31:45.502Z,8.37
2019-02-08T00:32:51.988Z,8.99
2019-02-08T00:33:58.817Z,9.49
2019-02-08T00:35:07.362Z,9.90
2019-02-08T00:36:14.033Z,10.29
2019-02-08T00:37:22.127Z,10.59
2019-02-08T00:38:28.590Z,10.77
2019-02-08T00:39:35.770Z,10.64
2019-02-08T00:40:41.873Z,10.29
2019-02-08T00:41:48.955Z,9.94
2019-02-08T00:42:55.992Z,9.52
2019-02-08T00:44:02.468Z,9.15
2019-02-08T00:45:19.110Z,8.80
2019-02-08T00:46:25.586Z,8.42
2019-02-08T00:47:31.956Z,8.11
2019-02-08T00:48:39.128Z,7.83
2019-02-08T00:49:46.088Z,7.58
2019-02-08T00:50:52.491Z,7.30
2019-02-08T00:52:00.423Z,7.09
2019-02-08T00:53:08.239Z,6.86
2019-02-08T00:54:15.380Z,6.68
2019-02-08T00:55:21.885Z,6.61
2019-02-08T00:56:28.207Z,7.02
2019-02-08T00:57:35.133Z,7.63
2019-02-08T00:58:41.895Z,8.31
2019-02-08T00:59:48.798Z,8.90
2019-02-08T01:00:55.721Z,9.39
2019-02-08T01:02:01.946Z,9.86
2019-02-08T01:03:10.320Z,10.21
2019-02-08T01:04:16.538Z,10.52
2019-02-08T01:05:28.922Z,10.73
2019-02-08T01:06:36.185Z,10.55
2019-02-08T01:07:43.242Z,10.17
2019-02-08T01:08:49.283Z,9.79
2019-02-08T01:09:55.942Z,9.41
2019-02-08T01:11:02.109Z,9.01
2019-02-08T01:12:08.745Z,8.67
2019-02-08T01:13:15.404Z,8.37
2019-02-08T01:14:21.986Z,8.07
2019-02-08T01:15:30.028Z,7.82
2019-02-08T01:16:36.611Z,7.55
2019-02-08T01:17:43.839Z,7.30
2019-02-08T01:18:51.168Z,7.07
2019-02-08T01:19:58.469Z,6.81
2019-02-08T01:21:05.268Z,6.63
2019-02-08T01:22:12.163Z,6.57
2019-02-08T01:23:18.226Z,6.96
2019-02-08T01:24:24.272Z,7.55
2019-02-08T01:25:32.284Z,8.18
2019-02-08T01:26:38.827Z,8.73
2019-02-08T01:27:45.523Z,9.20
2019-02-08T01:28:51.706Z,9.62
2019-02-08T01:29:58.061Z,10.02
2019-02-08T01:31:05.220Z,10.33
2019-02-08T01:32:11.936Z,10.55
2019-02-08T01:33:18.446Z,10.40
2019-02-08T01:34:24.873Z,10.05
2019-02-08T01:35:32.306Z,9.66
2019-02-08T01:36:39.006Z,9.27
2019-02-08T01:37:46.210Z,8.92
2019-02-08T01:38:52.766Z,8.53
2019-02-08T01:39:59.871Z,8.24
2019-02-08T01:41:06.112Z,7.93
2019-02-08T01:42:13.243Z,7.62
2019-02-08T01:43:20.300Z,7.37
2019-02-08T01:44:27.984Z,7.12
2019-02-08T01:45:41.214Z,6.86
2019-02-08T01:46:48.103Z,6.61
2019-02-08T01:47:55.332Z,6.50
2019-02-08T01:49:01.614Z,6.85
2019-02-08T01:50:15.521Z,7.47
2019-02-08T01:51:22.713Z,8.13
2019-02-08T01:52:29.665Z,8.69
2019-02-08T01:53:36.074Z,9.17
2019-02-08T01:54:42.807Z,9.53
2019-02-08T01:55:49.336Z,9.87
2019-02-08T01:56:55.836Z,10.18
2019-02-08T01:58:02.549Z,10.43
2019-02-08T01:59:09.280Z,10.62
2019-02-08T02:00:35.679Z,10.42
2019-02-08T02:01:42.346Z,9.93
2019-02-08T02:02:49.501Z,9.52
2019-02-08T02:03:56.075Z,9.08
2019-02-08T02:05:02.622Z,8.70
2019-02-08T02:06:08.694Z,8.37
2019-02-08T02:07:15.794Z,8.04
2019-02-08T02:08:21.877Z,7.76
2019-02-08T02:09:29.065Z,7.45
2019-02-08T02:10:42.094Z,7.17
2019-02-08T02:11:49.797Z,6.89
2019-02-08T02:12:57.168Z,6.65
2019-02-08T02:14:03.824Z,6.40
2019-02-08T02:15:11.520Z,6.34
2019-02-08T02:16:18.320Z,6.79
2019-02-08T02:17:25.634Z,7.42
2019-02-08T02:18:32.751Z,8.09
2019-02-08T02:19:43.961Z,8.62
2019-02-08T02:20:52.419Z,9.15
2019-02-08T02:21:58.657Z,9.53
2019-02-08T02:23:05.602Z,9.90
2019-02-08T02:24:12.599Z,10.22
2019-02-08T02:25:19.718Z,10.43
2019-02-08T02:26:26.070Z,10.26
2019-02-08T02:27:33.357Z,9.90
2019-02-08T02:28:40.461Z,9.48
2019-02-08T02:29:47.735Z,9.06
2019-02-08T02:30:54.421Z,8.65
2019-02-08T02:32:01.383Z,8.27
2019-02-08T02:33:10.916Z,7.96
2019-02-08T02:34:16.872Z,7.58
2019-02-08T02:35:24.617Z,7.31
2019-02-08T02:36:31.927Z,7.03
2019-02-08T02:37:38.852Z,6.78
2019-02-08T02:38:45.055Z,6.51
2019-02-08T02:39:52.506Z,6.29
2019-02-08T02:40:59.149Z,6.20
2019-02-08T02:42:05.732Z,6.64
2019-02-08T02:43:12.741Z,7.29
2019-02-08T02:44:20.417Z,7.90
2019-02-08T02:45:34.049Z,8.42
2019-02-08T02:46:42.056Z,8.94
2019-02-08T02:47:49.035Z,9.34
2019-02-08T02:48:56.373Z,9.65
2019-02-08T02:50:02.036Z,9.93
2019-02-08T02:51:09.272Z,10.21
2019-02-08T02:52:16.368Z,10.36
2019-02-08T02:53:24.324Z,10.19
2019-02-08T02:54:31.829Z,9.83
2019-02-08T02:55:38.574Z,9.41
2019-02-08T02:56:45.643Z,9.01
2019-02-08T02:57:53.114Z,8.63
2019-02-08T02:59:00.226Z,8.27
2019-02-08T03:00:17.639Z,7.94
2019-02-08T03:01:24.359Z,7.59
2019-02-08T03:02:30.963Z,7.30
2019-02-08T03:03:37.262Z,7.02
2019-02-08T03:04:43.873Z,6.76
2019-02-08T03:05:50.921Z,6.50
2019-02-08T03:06:57.339Z,6.40
2019-02-08T03:08:04.866Z,6.72
2019-02-08T03:09:11.373Z,7.37
2019-02-08T03:10:21.258Z,7.93
2019-02-08T03:11:28.133Z,8.52
2019-02-08T03:12:35.633Z,9.03
2019-02-08T03:13:43.094Z,9.48
2019-02-08T03:14:50.314Z,9.83
2019-02-08T03:15:57.579Z,10.15
2019-02-08T03:17:04.191Z,10.43
2019-02-08T03:18:11.627Z,10.63
2019-02-08T03:19:19.437Z,10.46
2019-02-08T03:20:26.615Z,10.10
2019-02-08T03:21:33.726Z,9.69
2019-02-08T03:22:40.644Z,9.28
2019-02-08T03:23:47.869Z,8.90
2019-02-08T03:24:55.548Z,8.52
2019-02-08T03:26:02.132Z,8.18
2019-02-08T03:27:09.483Z,7.89
2019-02-08T03:28:16.347Z,7.62
2019-02-08T03:29:23.728Z,7.34
2019-02-08T03:30:33.223Z,7.07
2019-02-08T03:31:41.092Z,6.79
2019-02-08T03:32:47.644Z,6.59
2019-02-08T03:33:55.019Z,6.52
2019-02-08T03:35:01.881Z,6.88
2019-02-08T03:36:09.034Z,7.47
2019-02-08T03:37:15.808Z,8.07
2019-02-08T03:38:22.778Z,8.66
2019-02-08T03:39:29.482Z,9.14
2019-02-08T03:40:36.156Z,9.55
2019-02-08T03:41:42.748Z,9.87
2019-02-08T03:42:49.117Z,10.19
2019-02-08T03:43:56.570Z,10.39
2019-02-08T03:45:03.263Z,10.25
2019-02-08T03:46:10.923Z,9.96
2019-02-08T03:47:17.947Z,9.56
2019-02-08T03:48:27.732Z,9.18
2019-02-08T03:49:34.953Z,8.79
2019-02-08T03:50:41.576Z,8.47
2019-02-08T03:51:49.199Z,8.16
2019-02-08T03:52:56.444Z,7.83
2019-02-08T03:54:03.536Z,7.57
2019-02-08T03:55:23.027Z,7.30
2019-02-08T03:56:30.453Z,6.99
2019-02-08T03:57:37.697Z,6.76
2019-02-08T03:58:44.160Z,6.54
2019-02-08T03:59:51.457Z,6.48
2019-02-08T04:01:00.857Z,6.88
2019-02-08T04:02:08.159Z,7.45
2019-02-08T04:03:14.505Z,8.06
2019-02-08T04:04:21.221Z,8.58
2019-02-08T04:05:27.656Z,9.06
2019-02-08T04:06:34.766Z,9.42
2019-02-08T04:07:41.694Z,9.77
2019-02-08T04:08:48.619Z,10.11
2019-02-08T04:09:55.425Z,10.42
2019-02-08T04:11:03.071Z,10.62
2019-02-08T04:12:09.990Z,10.47
2019-02-08T04:13:16.704Z,10.11
2019-02-08T04:14:23.778Z,9.73
2019-02-08T04:15:30.001Z,9.32
2019-02-08T04:16:37.219Z,8.94
2019-02-08T04:17:44.587Z,8.58
2019-02-08T04:18:51.186Z,8.25
2019-02-08T04:19:57.948Z,7.97
2019-02-08T04:21:05.115Z,7.70
2019-02-08T04:22:12.599Z,7.45
2019-02-08T04:23:18.605Z,7.17
2019-02-08T04:24:30.024Z,6.92
2019-02-08T04:25:34.095Z,6.67
2019-02-08T04:26:41.434Z,6.44
2019-02-08T04:27:48.863Z,6.37
2019-02-08T04:28:56.405Z,6.76
2019-02-08T04:30:03.381Z,7.37
2019-02-08T04:31:10.500Z,8.02
2019-02-08T04:32:17.687Z,8.51
2019-02-08T04:33:24.070Z,8.93
2019-02-08T04:34:30.355Z,9.25
2019-02-08T04:35:37.602Z,9.53
2019-02-08T04:36:44.646Z,9.80
2019-02-08T04:37:51.423Z,10.04
2019-02-08T04:38:57.789Z,10.17
2019-02-08T04:40:06.888Z,10.01
2019-02-08T04:41:13.612Z,9.63
2019-02-08T04:42:20.244Z,9.25
2019-02-08T04:43:26.388Z,8.87
2019-02-08T04:44:33.736Z,8.49
2019-02-08T04:45:40.309Z,8.17
2019-02-08T04:46:47.876Z,7.85
2019-02-08T04:47:54.989Z,7.55
2019-02-08T04:49:02.060Z,7.27
2019-02-08T04:50:27.602Z,6.99
2019-02-08T04:51:35.365Z,6.63
2019-02-08T04:52:42.240Z,6.37
2019-02-08T04:53:48.594Z,6.29
2019-02-08T04:54:54.794Z,6.63
2019-02-08T04:56:01.332Z,7.21
2019-02-08T04:57:07.830Z,7.83
2019-02-08T04:58:14.578Z,8.34
2019-02-08T04:59:20.795Z,8.83
2019-02-08T05:00:37.886Z,9.22
2019-02-08T05:01:45.502Z,9.56
2019-02-08T05:02:52.317Z,9.90
2019-02-08T05:03:58.820Z,10.17
2019-02-08T05:05:07.013Z,10.28
2019-02-08T05:06:14.507Z,10.11
2019-02-08T05:07:23.452Z,9.74
2019-02-08T05:08:31.261Z,9.32
2019-02-08T05:09:37.811Z,8.94
2019-02-08T05:10:44.523Z,8.53
2019-02-08T05:11:51.502Z,8.17
2019-02-08T05:12:58.449Z,7.82
2019-02-08T05:14:04.896Z,7.48
2019-02-08T05:15:12.145Z,7.16
2019-02-08T05:16:19.045Z,6.89
2019-02-08T05:17:25.580Z,6.58
2019-02-08T05:18:31.879Z,6.36
2019-02-08T05:19:39.331Z,6.10
2019-02-08T05:20:47.100Z,6.01
2019-02-08T05:21:54.554Z,6.40
2019-02-08T05:23:01.146Z,7.06
2019-02-08T05:24:07.867Z,7.65
2019-02-08T05:25:15.274Z,8.20
2019-02-08T05:26:21.907Z,8.67
2019-02-08T05:27:28.595Z,9.08
2019-02-08T05:28:36.944Z,9.45
2019-02-08T05:29:43.664Z,9.73
2019-02-08T05:30:51.065Z,9.91
2019-02-08T05:31:57.826Z,9.74
2019-02-08T05:33:03.993Z,9.39
2019-02-08T05:34:10.751Z,9.01
2019-02-08T05:35:18.110Z,8.56
2019-02-08T05:36:24.476Z,8.22
2019-02-08T05:37:31.707Z,7.85
2019-02-08T05:38:38.716Z,7.54
2019-02-08T05:39:45.698Z,7.24
2019-02-08T05:40:52.735Z,6.95
2019-02-08T05:41:59.760Z,6.69
2019-02-08T05:43:06.969Z,6.45
2019-02-08T05:44:13.490Z,6.19
2019-02-08T05:45:22.610Z,5.94
2019-02-08T05:46:35.339Z,5.84
2019-02-08T05:47:42.184Z,6.26
2019-02-08T05:48:49.174Z,6.88
2019-02-08T05:49:56.326Z,7.48
2019-02-08T05:51:03.401Z,7.97
2019-02-08T05:52:11.530Z,8.45
2019-02-08T05:53:20.605Z,8.90
2019-02-08T05:54:27.735Z,9.28
2019-02-08T05:55:34.726Z,9.57
2019-02-08T05:56:42.043Z,9.86
2019-02-08T05:57:48.916Z,10.01
2019-02-08T05:58:55.302Z,9.80
2019-02-08T06:00:01.947Z,9.42
2019-02-08T06:01:08.552Z,9.04
2019-02-08T06:02:16.583Z,8.60
2019-02-08T06:03:23.774Z,8.20
2019-02-08T06:04:31.027Z,7.82
2019-02-08T06:05:37.837Z,7.45
2019-02-08T06:06:44.809Z,7.14
2019-02-08T06:07:52.351Z,6.82
2019-02-08T06:09:04.883Z,6.54
2019-02-08T06:10:14.983Z,6.22
2019-02-08T06:11:22.699Z,5.94
2019-02-08T06:12:29.225Z,5.70
2019-02-08T06:13:35.839Z,5.58
2019-02-08T06:14:43.007Z,5.99
2019-02-08T06:15:49.633Z,6.63
2019-02-08T06:16:57.277Z,7.29
2019-02-08T06:18:05.356Z,7.82
2019-02-08T06:19:12.963Z,8.31
2019-02-08T06:20:23.093Z,8.75
2019-02-08T06:21:29.207Z,9.15
2019-02-08T06:22:38.965Z,9.48
2019-02-08T06:23:46.556Z,9.79
2019-02-08T06:24:53.550Z,9.96
2019-02-08T06:26:01.127Z,9.79
2019-02-08T06:27:07.572Z,9.38
2019-02-08T06:28:14.631Z,8.97
2019-02-08T06:29:21.114Z,8.52
2019-02-08T06:30:31.930Z,8.14
2019-02-08T06:31:39.102Z,7.76
2019-02-08T06:32:46.381Z,7.40
2019-02-08T06:33:54.687Z,7.10
2019-02-08T06:35:01.107Z,6.79
2019-02-08T06:36:08.134Z,6.52
2019-02-08T06:37:14.471Z,6.27
2019-02-08T06:38:20.705Z,6.03
2019-02-08T06:39:27.440Z,5.81
2019-02-08T06:40:46.655Z,5.60
2019-02-08T06:41:52.848Z,5.63
2019-02-08T06:42:59.929Z,6.09
2019-02-08T06:44:05.965Z,6.78
2019-02-08T06:45:17.197Z,7.40
2019-02-08T06:46:24.614Z,7.99
2019-02-08T06:47:31.464Z,8.44
2019-02-08T06:48:38.279Z,8.79
2019-02-08T06:49:45.146Z,9.17
2019-02-08T06:50:50.797Z,9.46
2019-02-08T06:51:57.546Z,9.63
2019-02-08T06:53:03.814Z,9.50
2019-02-08T06:54:10.336Z,9.14
2019-02-08T06:55:16.476Z,8.72
2019-02-08T06:56:41.844Z,8.34
2019-02-08T06:57:52.576Z,7.85
2019-02-08T06:59:05.711Z,7.47
2019-02-08T07:00:23.338Z,7.13
2019-02-08T07:01:31.296Z,6.78
2019-02-08T07:02:39.591Z,6.50
2019-02-08T07:03:47.316Z,6.22
2019-02-08T07:05:04.857Z,5.94
2019-02-08T07:06:16.396Z,5.63
2019-02-08T07:07:23.636Z,5.41
2019-02-08T07:08:44.316Z,5.34
2019-02-08T07:09:57.478Z,5.89
2019-02-08T07:11:08.651Z,6.63
2019-02-08T07:12:37.295Z,7.33
2019-02-08T07:13:49.018Z,8.03
2019-02-08T07:15:03.239Z,8.56
2019-02-08T07:16:11.336Z,9.03
2019-02-08T07:17:37.890Z,9.39
2019-02-08T07:18:46.483Z,9.82
2019-02-08T07:19:54.571Z,10.04
2019-02-08T07:21:08.591Z,9.91
2019-02-08T07:22:21.603Z,9.59
2019-02-08T07:23:29.450Z,9.15
2019-02-08T07:24:42.163Z,8.79
2019-02-08T07:25:53.570Z,8.41
2019-02-08T07:27:11.062Z,8.07
2019-02-08T07:28:24.527Z,7.72
2019-02-08T07:29:38.930Z,7.44
2019-02-08T07:31:00.056Z,7.12
2019-02-08T07:32:10.911Z,6.84
2019-02-08T07:33:19.812Z,6.55
2019-02-08T07:34:33.379Z,6.34
2019-02-08T07:35:43.631Z,6.08
2019-02-08T07:36:54.550Z,6.03
2019-02-08T07:38:02.990Z,6.48
2019-02-08T07:39:15.091Z,7.13
2019-02-08T07:40:36.670Z,7.78
2019-02-08T07:41:45.918Z,8.32
2019-02-08T07:42:54.301Z,8.79
2019-02-08T07:44:05.577Z,9.15
2019-02-08T07:45:16.738Z,9.46
2019-02-08T07:46:28.430Z,9.77
2019-02-08T07:47:39.752Z,10.04
2019-02-08T07:49:04.138Z,10.14
2019-02-08T07:50:29.605Z,9.84
2019-02-08T07:51:39.044Z,9.38
2019-02-08T07:52:50.484Z,8.97
2019-02-08T07:54:05.806Z,8.53
2019-02-08T07:55:17.697Z,8.09
2019-02-08T07:56:37.544Z,7.72
2019-02-08T07:57:48.284Z,7.35
2019-02-08T07:59:01.777Z,7.04
2019-02-08T08:00:32.467Z,6.78
2019-02-08T08:01:43.732Z,6.44
2019-02-08T08:02:54.125Z,6.17
2019-02-08T08:04:01.830Z,6.16
2019-02-08T08:05:11.365Z,6.65
2019-02-08T08:06:22.324Z,7.29
2019-02-08T08:07:32.053Z,7.93
2019-02-08T08:08:41.346Z,8.51
2019-02-08T08:09:56.865Z,8.99
2019-02-08T08:11:08.478Z,9.42
2019-02-08T08:12:18.762Z,9.79
2019-02-08T08:13:29.383Z,10.15
2019-02-08T08:14:53.584Z,10.32
2019-02-08T08:16:13.603Z,10.04
2019-02-08T08:17:21.104Z,9.62
2019-02-08T08:18:29.906Z,9.25
2019-02-08T08:19:51.443Z,8.89
2019-02-08T08:21:18.876Z,8.44
2019-02-08T08:22:35.023Z,8.06
2019-02-08T08:23:56.783Z,7.74
2019-02-08T08:25:18.416Z,7.41
2019-02-08T08:26:44.544Z,7.12
2019-02-08T08:27:53.206Z,6.84
2019-02-08T08:29:07.301Z,6.63
2019-02-08T08:30:20.341Z,6.63
2019-02-08T08:31:28.601Z,7.20
2019-02-08T08:32:36.280Z,7.89
2019-02-08T08:33:53.301Z,8.49
2019-02-08T08:35:15.715Z,9.11
2019-02-08T08:45:58.162Z,10.90
2019-02-08T08:47:23.881Z,9.93
2019-02-08T08:48:53.881Z,9.22
2019-02-08T08:50:19.202Z,8.53
2019-02-08T08:51:49.417Z,7.90
2019-02-08T08:53:17.420Z,7.34
2019-02-08T08:55:10.636Z,6.84
2019-02-08T08:56:46.677Z,6.89
2019-02-08T08:58:33.894Z,7.63
2019-02-08T09:00:05.922Z,8.44
2019-02-08T09:01:31.462Z,9.06
2019-02-08T09:03:02.164Z,9.48
2019-02-08T09:04:46.821Z,9.83
2019-02-08T09:06:15.525Z,10.19
2019-02-08T09:07:35.230Z,10.46
2019-02-08T09:09:04.881Z,10.45
2019-02-08T09:10:56.001Z,9.90
2019-02-08T09:12:09.121Z,9.14
2019-02-08T09:13:53.177Z,8.62
2019-02-08T09:15:18.223Z,7.99
2019-02-08T09:17:00.041Z,7.52
2019-02-08T09:18:19.401Z,7.07
2019-02-08T09:19:39.776Z,6.95
2019-02-08T09:21:22.902Z,7.40
2019-02-08T09:22:56.840Z,8.30
2019-02-08T09:24:44.822Z,9.06
2019-02-08T09:26:22.195Z,9.67
2019-02-08T09:28:04.404Z,10.12
2019-02-08T09:29:35.715Z,10.45
2019-02-08T09:31:01.341Z,10.67
2019-02-08T09:32:27.560Z,10.67
2019-02-08T09:33:54.421Z,10.15
2019-02-08T09:35:33.213Z,9.50
2019-02-08T09:37:09.682Z,8.84
2019-02-08T09:38:41.833Z,8.25
2019-02-08T09:40:14.380Z,7.82
2019-02-08T09:41:44.561Z,7.40
2019-02-08T09:43:25.460Z,7.06
2019-02-08T09:45:07.541Z,7.07
2019-02-08T09:46:55.260Z,7.83
2019-02-08T09:48:33.513Z,8.76
2019-02-08T09:50:31.361Z,9.43
2019-02-08T09:52:02.882Z,10.05
2019-02-08T09:53:36.390Z,10.55
2019-02-08T09:55:16.893Z,10.94
2019-02-08T09:56:44.804Z,10.87
2019-02-08T09:58:28.134Z,10.37
2019-02-08T10:00:18.520Z,9.72
2019-02-08T10:01:34.581Z,9.03
2019-02-08T10:03:19.444Z,8.52
2019-02-08T10:05:04.223Z,7.93
2019-02-08T10:06:30.853Z,7.42
2019-02-08T10:08:17.142Z,7.34
2019-02-08T10:09:49.721Z,8.07
2019-02-08T10:11:23.104Z,8.86
2019-02-08T10:13:19.982Z,9.50
2019-02-08T10:15:01.295Z,10.07
2019-02-08T10:16:43.322Z,10.60
2019-02-08T10:18:30.421Z,10.98
2019-02-08T10:20:06.395Z,11.04
2019-02-08T10:21:35.793Z,10.53
2019-02-08T10:23:11.194Z,9.89
2019-02-08T10:24:54.240Z,9.25
2019-02-08T10:26:43.141Z,8.65
2019-02-08T10:28:40.821Z,8.18
2019-02-08T10:30:35.597Z,7.75
2019-02-08T10:32:07.991Z,7.35
2019-02-08T10:34:07.777Z,7.41
2019-02-08T10:36:00.523Z,8.47
2019-02-08T10:38:16.600Z,9.42
2019-02-08T10:39:57.830Z,10.21
2019-02-08T10:41:33.928Z,10.67
2019-02-08T10:43:25.361Z,11.14
2019-02-08T10:44:47.672Z,11.22
2019-02-08T10:46:28.540Z,10.83
2019-02-08T10:49:51.720Z,9.52
2019-02-08T10:51:39.301Z,9.01
2019-02-08T10:53:23.742Z,8.45
2019-02-08T10:55:09.836Z,8.00
2019-02-08T10:56:39.380Z,7.62
2019-02-08T10:58:22.363Z,7.65
2019-02-08T11:00:14.662Z,8.53
2019-02-08T11:02:08.501Z,9.48
2019-02-08T11:03:54.776Z,10.26
2019-02-08T11:05:25.220Z,10.79
2019-02-08T11:07:03.938Z,11.14
2019-02-08T11:08:52.656Z,11.23
2019-02-08T11:10:44.123Z,10.67
2019-02-08T11:12:18.958Z,9.98
2019-02-08T11:15:38.181Z,8.92
2019-02-08T11:17:19.386Z,8.44
2019-02-08T11:19:02.791Z,8.02
2019-02-08T11:20:10.561Z,8.06
2019-02-08T11:21:17.197Z,8.55
2019-02-08T11:22:24.761Z,9.22
2019-02-08T11:23:32.462Z,9.79
2019-02-08T11:24:39.661Z,10.35
2019-02-08T11:25:47.974Z,10.84
2019-02-08T11:26:56.155Z,11.25
2019-02-08T11:28:05.774Z,11.47
2019-02-08T11:29:14.155Z,11.32
2019-02-08T11:30:21.073Z,10.90
2019-02-08T11:31:28.876Z,10.52
2019-02-08T11:32:43.257Z,10.08
2019-02-08T11:33:42.390Z,9.72
2019-02-08T11:34:49.260Z,9.39
2019-02-08T11:35:56.524Z,9.06
2019-02-08T11:37:02.984Z,8.70
2019-02-08T11:38:10.722Z,8.42
2019-02-08T11:39:17.753Z,8.14
2019-02-08T11:40:26.774Z,8.04
2019-02-08T11:41:34.624Z,8.41
2019-02-08T11:42:42.054Z,8.96
2019-02-08T11:43:49.635Z,9.56
2019-02-08T11:44:55.660Z,10.01
2019-02-08T11:46:01.621Z,10.43
2019-02-08T11:47:07.348Z,10.73
2019-02-08T11:48:13.650Z,11.05
2019-02-08T11:49:20.147Z,11.14
2019-02-08T11:50:29.284Z,10.98
2019-02-08T11:51:35.418Z,10.66
2019-02-08T11:52:41.362Z,10.26
2019-02-08T11:53:47.397Z,9.93
2019-02-08T11:54:53.754Z,9.56
2019-02-08T11:56:01.887Z,9.24
2019-02-08T11:57:08.073Z,8.94
2019-02-08T11:58:16.221Z,8.63
2019-02-08T11:59:22.507Z,8.41
2019-02-08T12:00:40.322Z,8.17
2019-02-08T12:01:53.641Z,8.13
2019-02-08T12:03:00.606Z,8.65
2019-02-08T12:04:06.904Z,9.22
2019-02-08T12:05:12.553Z,9.74
2019-02-08T12:06:18.583Z,10.22
2019-02-08T12:07:25.896Z,10.56
2019-02-08T12:08:31.623Z,10.90
2019-02-08T12:09:38.241Z,11.18
2019-02-08T12:11:06.442Z,11.32
2019-02-08T12:12:12.382Z,11.04
2019-02-08T12:13:19.214Z,10.70
2019-02-08T12:14:25.377Z,10.28
2019-02-08T12:15:31.902Z,9.91
2019-02-08T12:16:39.680Z,9.57
2019-02-08T12:17:46.220Z,9.28
2019-02-08T12:18:52.301Z,9.04
2019-02-08T12:19:58.014Z,8.77
2019-02-08T12:21:04.360Z,8.53
2019-02-08T12:22:11.874Z,8.37
2019-02-08T12:23:19.154Z,8.66
2019-02-08T12:24:25.001Z,9.21
2019-02-08T12:25:31.576Z,9.77
2019-02-08T12:26:38.735Z,10.25
2019-02-08T12:29:05.754Z,11.05
2019-02-08T12:30:28.055Z,11.42
2019-02-08T12:31:35.274Z,11.53
2019-02-08T12:32:42.463Z,11.25
2019-02-08T12:33:48.603Z,10.86
2019-02-08T12:34:54.400Z,10.46
2019-02-08T12:36:02.967Z,10.08
2019-02-08T12:37:10.031Z,9.70
2019-02-08T12:38:17.697Z,9.39
2019-02-08T12:39:24.974Z,9.10
2019-02-08T12:40:32.774Z,8.80
2019-02-08T12:41:38.880Z,8.53
2019-02-08T12:42:45.080Z,8.34
2019-02-08T12:43:51.693Z,8.13
2019-02-08T12:44:57.731Z,7.93
2019-02-08T12:46:04.143Z,7.92
2019-02-08T12:47:10.700Z,8.32
2019-02-08T12:48:16.453Z,8.94
2019-02-08T12:49:22.713Z,9.46
2019-02-08T12:50:30.740Z,10.04
2019-02-08T12:51:42.870Z,10.53
2019-02-08T12:52:49.622Z,10.97
2019-02-08T12:53:55.721Z,11.32
2019-02-08T12:55:01.908Z,11.52
2019-02-08T12:56:08.861Z,11.38
2019-02-08T12:57:14.956Z,11.02
2019-02-08T12:58:22.760Z,10.62
2019-02-08T12:59:28.495Z,10.24
2019-02-08T13:00:35.364Z,9.87
2019-02-08T13:01:44.062Z,9.56
2019-02-08T13:02:49.874Z,9.29
2019-02-08T13:03:55.961Z,9.00
2019-02-08T13:05:02.041Z,8.70
2019-02-08T13:06:09.741Z,8.45
2019-02-08T13:07:15.436Z,8.22
2019-02-08T13:08:21.373Z,8.06
2019-02-08T13:09:27.123Z,7.97
2019-02-08T13:10:34.397Z,8.41
2019-02-08T13:11:42.080Z,9.06
2019-02-08T13:12:48.453Z,9.69
2019-02-08T13:13:54.200Z,10.21
2019-02-08T13:15:00.277Z,10.66
2019-02-08T13:16:06.557Z,11.08
2019-02-08T13:17:12.634Z,11.42
2019-02-08T13:18:19.181Z,11.61
2019-02-08T13:19:25.195Z,11.45
2019-02-08T13:20:31.083Z,11.12
2019-02-08T13:21:37.164Z,10.73
2019-02-08T13:22:43.323Z,10.31
2019-02-08T13:23:49.300Z,9.93
2019-02-08T13:24:55.861Z,9.55
2019-02-08T13:26:03.079Z,9.24
2019-02-08T13:27:08.909Z,8.93
2019-02-08T13:28:14.660Z,8.60
2019-02-08T13:29:20.402Z,8.31
2019-02-08T13:30:34.421Z,8.09
2019-02-08T13:31:40.361Z,7.83
2019-02-08T13:32:46.220Z,7.79
2019-02-08T13:33:52.373Z,8.17
2019-02-08T13:35:00.133Z,8.79
2019-02-08T13:36:10.234Z,9.42
2019-02-08T13:37:17.189Z,10.00
2019-02-08T13:38:24.560Z,10.50
2019-02-08T13:39:31.018Z,10.98
2019-02-08T13:40:38.581Z,11.35
2019-02-08T13:41:44.363Z,11.59
2019-02-08T13:42:53.541Z,11.42
2019-02-08T13:44:00.848Z,11.02
2019-02-08T13:45:11.941Z,10.62
2019-02-08T13:46:18.041Z,10.15
2019-02-08T13:47:24.214Z,9.77
2019-02-08T13:48:30.174Z,9.43
2019-02-08T13:49:37.441Z,9.10
2019-02-08T13:50:44.943Z,8.80
2019-02-08T13:51:51.690Z,8.48
2019-02-08T13:52:58.943Z,8.18
2019-02-08T13:54:06.560Z,7.92
2019-02-08T13:55:33.375Z,7.70
2019-02-08T13:56:40.844Z,7.70
2019-02-08T13:57:46.922Z,8.22
2019-02-08T13:58:52.990Z,8.84
2019-02-08T13:59:59.097Z,9.50
2019-02-08T14:01:05.473Z,10.10
2019-02-08T14:02:11.674Z,10.60
2019-02-08T14:03:19.101Z,10.97
2019-02-08T14:04:25.233Z,11.36
2019-02-08T14:05:30.981Z,11.54
2019-02-08T14:06:38.263Z,11.33
2019-02-08T14:07:44.422Z,10.95
2019-02-08T14:08:51.286Z,10.52
2019-02-08T14:09:58.025Z,10.14
2019-02-08T14:11:06.393Z,9.79
2019-02-08T14:12:12.362Z,9.39
2019-02-08T14:13:18.760Z,9.03
2019-02-08T14:14:25.255Z,8.69
2019-02-08T14:15:32.081Z,8.42
2019-02-08T14:16:38.501Z,8.17
2019-02-08T14:18:06.182Z,7.94
2019-02-08T14:19:12.499Z,7.63
2019-02-08T14:20:25.940Z,7.57
2019-02-08T14:21:32.501Z,8.02
2019-02-08T14:22:40.561Z,8.69
2019-02-08T14:23:47.100Z,9.38
2019-02-08T14:24:53.941Z,9.87
2019-02-08T14:26:00.064Z,10.32
2019-02-08T14:27:08.588Z,10.79
2019-02-08T14:28:15.284Z,11.12
2019-02-08T14:29:21.033Z,11.32
2019-02-08T14:30:33.721Z,11.14
2019-02-08T14:31:39.653Z,10.71
2019-02-08T14:32:46.081Z,10.26
2019-02-08T14:33:54.822Z,9.83
2019-02-08T14:35:08.862Z,9.41
2019-02-08T14:36:15.905Z,9.04
2019-02-08T14:37:42.993Z,8.70
2019-02-08T14:38:49.627Z,8.34
2019-02-08T14:39:56.217Z,8.03
2019-02-08T14:41:02.925Z,7.75
2019-02-08T14:42:09.593Z,7.49
2019-02-08T14:43:15.396Z,7.47
2019-02-08T14:44:21.583Z,7.89
2019-02-08T14:45:48.084Z,8.53
2019-02-08T14:46:54.405Z,9.32
2019-02-08T14:48:00.284Z,9.83
2019-02-08T14:49:10.714Z,10.28
2019-02-08T14:50:24.666Z,10.69
2019-02-08T14:51:33.431Z,11.02
2019-02-08T14:52:44.581Z,11.12
2019-02-08T14:54:05.897Z,10.87
2019-02-08T14:55:11.461Z,10.42
2019-02-08T14:56:17.462Z,9.96
2019-02-08T14:57:23.301Z,9.55
2019-02-08T14:58:29.060Z,9.15
2019-02-08T14:59:35.585Z,8.82
2019-02-08T15:00:42.157Z,8.48
2019-02-08T15:03:04.857Z,7.89
2019-02-08T15:04:24.445Z,7.62
2019-02-08T15:05:35.322Z,7.35
2019-02-08T15:06:46.604Z,7.27
2019-02-08T15:07:54.386Z,7.75
2019-02-08T15:09:03.699Z,8.41
2019-02-08T15:10:27.462Z,9.10
2019-02-08T15:11:34.703Z,9.73
2019-02-08T15:12:40.842Z,10.18
2019-02-08T15:13:47.661Z,10.49
2019-02-08T15:14:54.202Z,10.74
2019-02-08T15:16:00.923Z,10.87
2019-02-08T15:17:08.556Z,10.64
2019-02-08T15:18:14.692Z,10.25
2019-02-08T15:19:21.802Z,9.83
2019-02-08T15:20:33.493Z,9.43
2019-02-08T15:21:40.467Z,8.99
2019-02-08T15:22:46.641Z,8.58
2019-02-08T15:23:53.094Z,8.25
2019-02-08T15:25:02.764Z,7.94
2019-02-08T15:26:09.270Z,7.63
2019-02-08T15:27:16.141Z,7.37
2019-02-08T15:28:23.168Z,7.23
2019-02-08T15:29:29.706Z,7.55
2019-02-08T15:30:38.128Z,8.14
2019-02-08T15:31:45.068Z,8.75
2019-02-08T15:32:51.566Z,9.28
2019-02-08T15:33:57.673Z,9.70
2019-02-08T15:35:04.160Z,10.07
2019-02-08T15:36:12.702Z,10.36
2019-02-08T15:37:18.886Z,10.59
2019-02-08T15:38:26.729Z,10.73
2019-02-08T15:39:33.960Z,10.47
2019-02-08T15:40:44.272Z,10.08
2019-02-08T15:41:51.600Z,9.62
2019-02-08T15:42:58.500Z,9.17
2019-02-08T15:44:04.743Z,8.73
2019-02-08T15:45:21.171Z,8.32
2019-02-08T15:46:27.497Z,7.86
2019-02-08T15:47:33.874Z,7.49
2019-02-08T15:48:41.741Z,7.14
2019-02-08T15:49:48.376Z,6.98
2019-02-08T15:50:56.100Z,7.31
2019-02-08T15:52:02.011Z,7.85
2019-02-08T15:53:09.594Z,8.39
2019-02-08T15:54:15.410Z,8.93
2019-02-08T15:55:31.741Z,9.34
2019-02-08T15:56:38.434Z,9.73
2019-02-08T15:57:44.760Z,10.02
2019-02-08T15:58:50.453Z,10.28
2019-02-08T15:59:58.862Z,10.49
2019-02-08T16:01:05.961Z,10.57
2019-02-08T16:02:13.354Z,10.32
2019-02-08T16:03:20.047Z,9.87
2019-02-08T16:04:26.728Z,9.45